createdAt,value
2019-04-28T00:00:08.380Z,93.62
2019-04-28T00:01:08.385Z,93.01
2019-04-28T00:02:08.443Z,92.69
2019-04-28T00:03:08.411Z,91.56
2019-04-28T00:04:08.409Z,92.90
2019-04-28T00:05:08.379Z,92.80
2019-04-28T00:06:08.331Z,91.66
2019-04-28T00:07:08.317Z,92.49
2019-04-28T00:08:08.326Z,92.08
2019-04-28T00:09:08.327Z,91.97
2019-04-28T00:10:08.296Z,93.01
2019-04-28T00:11:08.295Z,92.59
2019-04-28T00:12:08.281Z,92.80
2019-04-28T00:13:08.255Z,92.29
2019-04-28T00:14:08.557Z,92.18
2019-04-28T00:15:08.275Z,92.49
2019-04-28T00:16:08.376Z,92.59
2019-04-28T00:17:08.271Z,91.77
2019-04-28T00:18:08.244Z,91.46
2019-04-28T00:19:08.208Z,91.77
2019-04-28T00:20:08.190Z,91.97
2019-04-28T00:21:08.170Z,91.77
2019-04-28T00:22:08.151Z,91.87
2019-04-28T00:23:08.213Z,91.66
2019-04-28T00:24:08.165Z,91.77
2019-04-28T00:25:08.165Z,92.18
2019-04-28T00:26:08.285Z,91.56
2019-04-28T00:27:08.110Z,91.87
2019-04-28T00:28:08.414Z,92.08
2019-04-28T00:29:08.113Z,92.69
2019-04-28T00:30:08.083Z,91.77
2019-04-28T00:31:08.100Z,90.94
2019-04-28T00:32:08.037Z,91.97
2019-04-28T00:33:08.039Z,92.29
2019-04-28T00:34:08.056Z,92.08
2019-04-28T00:35:08.068Z,91.56
2019-04-28T00:36:08.043Z,92.29
2019-04-28T00:37:07.991Z,91.25
2019-04-28T00:38:08.050Z,91.56
2019-04-28T00:39:08.067Z,91.77
2019-04-28T00:40:07.981Z,92.08
2019-04-28T00:41:07.965Z,92.08
2019-04-28T00:42:07.940Z,92.29
2019-04-28T00:43:07.979Z,92.29
2019-04-28T00:44:07.949Z,92.08
2019-04-28T00:45:08.008Z,92.29
2019-04-28T00:46:07.950Z,92.38
2019-04-28T00:47:07.923Z,92.08
2019-04-28T00:48:07.913Z,91.66
2019-04-28T00:49:07.881Z,92.38
2019-04-28T00:50:08.014Z,91.87
2019-04-28T00:51:07.842Z,91.56
2019-04-28T00:52:07.849Z,91.56
2019-04-28T00:53:07.824Z,91.25
2019-04-28T00:54:07.824Z,91.77
2019-04-28T00:55:07.923Z,91.87
2019-04-28T00:56:07.889Z,91.46
2019-04-28T00:57:07.838Z,90.94
2019-04-28T00:58:07.793Z,91.15
2019-04-28T00:59:07.800Z,90.43
2019-04-28T01:00:07.783Z,91.15
2019-04-28T01:01:07.752Z,90.43
2019-04-28T01:02:07.720Z,90.73
2019-04-28T01:03:07.757Z,90.73
2019-04-28T01:04:07.766Z,90.84
2019-04-28T01:05:07.709Z,90.64
2019-04-28T01:06:07.821Z,91.15
2019-04-28T01:07:07.731Z,90.64
2019-04-28T01:08:07.700Z,90.84
2019-04-28T01:09:07.680Z,90.22
2019-04-28T01:10:07.663Z,89.91
2019-04-28T01:11:07.718Z,90.33
2019-04-28T01:12:07.652Z,90.94
2019-04-28T01:13:07.619Z,91.05
2019-04-28T01:14:07.632Z,90.12
2019-04-28T01:15:07.611Z,90.33
2019-04-28T01:16:09.358Z,89.50
2019-04-28T01:17:07.647Z,89.91
2019-04-28T01:18:07.536Z,88.95
2019-04-28T01:19:07.579Z,89.87
2019-04-28T01:20:07.601Z,89.36
2019-04-28T01:21:07.553Z,89.67
2019-04-28T01:22:07.632Z,89.87
2019-04-28T01:23:07.538Z,88.74
2019-04-28T01:24:07.515Z,89.56
2019-04-28T01:25:07.544Z,89.15
2019-04-28T01:26:07.487Z,89.05
2019-04-28T01:27:07.458Z,89.56
2019-04-28T01:28:07.448Z,89.25
2019-04-28T01:29:07.457Z,89.50
2019-04-28T01:30:09.149Z,89.61
2019-04-28T01:31:07.426Z,89.40
2019-04-28T01:32:07.438Z,89.50
2019-04-28T01:33:07.407Z,89.91
2019-04-28T01:34:07.405Z,89.29
2019-04-28T01:35:07.382Z,90.01
2019-04-28T01:36:07.372Z,89.91
2019-04-28T01:37:07.348Z,89.91
2019-04-28T01:38:07.362Z,90.33
2019-04-28T01:39:07.354Z,90.43
2019-04-28T01:40:07.336Z,90.12
2019-04-28T01:41:07.377Z,90.12
2019-04-28T01:42:07.381Z,89.71
2019-04-28T01:43:07.287Z,89.91
2019-04-28T01:44:07.286Z,89.09
2019-04-28T01:45:07.327Z,89.40
2019-04-28T01:46:07.305Z,90.01
2019-04-28T01:47:07.292Z,90.01
2019-04-28T01:48:07.236Z,89.61
2019-04-28T01:49:07.210Z,90.22
2019-04-28T01:50:07.203Z,89.71
2019-04-28T01:51:07.203Z,90.12
2019-04-28T01:52:07.197Z,89.81
2019-04-28T01:53:07.223Z,90.22
2019-04-28T01:54:07.165Z,90.43
2019-04-28T01:55:07.155Z,90.22
2019-04-28T01:56:07.141Z,89.50
2019-04-28T01:57:07.135Z,89.91
2019-04-28T01:58:07.143Z,89.50
2019-04-28T01:59:07.097Z,89.09
2019-04-28T02:00:20.060Z,89.50
2019-04-28T02:01:08.070Z,89.40
2019-04-28T02:02:07.120Z,88.68
2019-04-28T02:03:07.091Z,88.89
2019-04-28T02:04:07.087Z,89.61
2019-04-28T02:05:07.067Z,89.29
2019-04-28T02:06:07.045Z,89.71
2019-04-28T02:07:07.118Z,89.40
2019-04-28T02:08:07.021Z,89.50
2019-04-28T02:09:09.627Z,89.50
2019-04-28T02:10:07.011Z,89.09
2019-04-28T02:11:06.993Z,89.71
2019-04-28T02:12:06.962Z,89.61
2019-04-28T02:13:06.982Z,89.71
2019-04-28T02:14:06.981Z,89.61
2019-04-28T02:15:06.973Z,89.50
2019-04-28T02:16:06.969Z,89.81
2019-04-28T02:17:06.950Z,89.50
2019-04-28T02:18:07.009Z,89.40
2019-04-28T02:19:06.921Z,89.50
2019-04-28T02:20:06.952Z,90.01
2019-04-28T02:21:06.943Z,89.81
2019-04-28T02:22:06.859Z,89.50
2019-04-28T02:23:06.875Z,90.22
2019-04-28T02:24:06.834Z,89.29
2019-04-28T02:25:06.821Z,89.61
2019-04-28T02:26:07.016Z,90.01
2019-04-28T02:27:06.881Z,89.71
2019-04-28T02:28:06.837Z,89.91
2019-04-28T02:29:06.769Z,89.40
2019-04-28T02:30:06.791Z,89.81
2019-04-28T02:31:06.838Z,90.01
2019-04-28T02:32:06.755Z,90.43
2019-04-28T02:33:06.765Z,90.12
2019-04-28T02:34:06.711Z,90.26
2019-04-28T02:35:10.402Z,90.37
2019-04-28T02:36:08.797Z,90.47
2019-04-28T02:37:06.767Z,90.47
2019-04-28T02:38:06.789Z,90.67
2019-04-28T02:39:06.721Z,90.88
2019-04-28T02:40:06.679Z,90.78
2019-04-28T02:41:06.678Z,91.09
2019-04-28T02:42:06.672Z,91.60
2019-04-28T02:43:06.641Z,90.99
2019-04-28T02:44:06.661Z,90.57
2019-04-28T02:45:06.633Z,90.47
2019-04-28T02:46:06.607Z,90.67
2019-04-28T02:47:06.597Z,90.99
2019-04-28T02:48:06.598Z,90.26
2019-04-28T02:49:06.581Z,90.57
2019-04-28T02:50:06.619Z,89.50
2019-04-28T02:51:06.580Z,89.71
2019-04-28T02:52:06.525Z,90.43
2019-04-28T02:53:06.508Z,89.91
2019-04-28T02:54:06.578Z,89.91
2019-04-28T02:55:06.489Z,89.71
2019-04-28T02:56:06.563Z,90.12
2019-04-28T02:57:06.474Z,90.53
2019-04-28T02:58:06.498Z,90.12
2019-04-28T02:59:06.469Z,89.81
2019-04-28T03:00:06.476Z,90.43
2019-04-28T03:01:18.052Z,90.26
2019-04-28T03:02:07.483Z,90.37
2019-04-28T03:03:06.407Z,89.91
2019-04-28T03:04:06.426Z,89.40
2019-04-28T03:05:06.626Z,90.01
2019-04-28T03:06:06.421Z,89.81
2019-04-28T03:07:06.402Z,89.19
2019-04-28T03:08:06.429Z,89.71
2019-04-28T03:09:06.411Z,89.40
2019-04-28T03:10:06.415Z,89.81
2019-04-28T03:11:06.351Z,89.61
2019-04-28T03:12:06.305Z,89.81
2019-04-28T03:13:06.288Z,90.01
2019-04-28T03:14:06.298Z,89.40
2019-04-28T03:15:06.279Z,89.09
2019-04-28T03:16:06.938Z,88.89
2019-04-28T03:17:06.321Z,89.40
2019-04-28T03:18:06.275Z,89.50
2019-04-28T03:19:06.359Z,89.40
2019-04-28T03:20:06.300Z,89.40
2019-04-28T03:21:06.331Z,88.99
2019-04-28T03:22:06.703Z,89.50
2019-04-28T03:23:09.017Z,89.29
2019-04-28T03:24:07.198Z,89.19
2019-04-28T03:25:06.183Z,89.19
2019-04-28T03:26:06.207Z,89.61
2019-04-28T03:27:06.206Z,89.81
2019-04-28T03:28:06.158Z,89.61
2019-04-28T03:29:06.157Z,89.50
2019-04-28T03:30:06.165Z,90.01
2019-04-28T03:31:35.220Z,89.81
2019-04-28T03:32:28.047Z,90.33
2019-04-28T03:33:13.129Z,89.61
2019-04-28T03:34:07.164Z,90.22
2019-04-28T03:35:06.116Z,89.61
2019-04-28T03:36:08.257Z,89.61
2019-04-28T03:37:06.064Z,89.81
2019-04-28T03:38:06.033Z,89.40
2019-04-28T03:39:06.035Z,89.40
2019-04-28T03:40:06.083Z,89.40
2019-04-28T03:41:06.047Z,89.19
2019-04-28T03:42:05.985Z,89.71
2019-04-28T03:43:06.076Z,89.50
2019-04-28T03:44:06.040Z,90.01
2019-04-28T03:45:05.999Z,89.81
2019-04-28T03:46:05.959Z,89.19
2019-04-28T03:47:05.942Z,89.09
2019-04-28T03:48:05.947Z,88.68
2019-04-28T03:49:05.928Z,89.71
2019-04-28T03:50:05.931Z,89.81
2019-04-28T03:51:05.893Z,89.40
2019-04-28T03:52:05.925Z,89.29
2019-04-28T03:53:05.892Z,89.71
2019-04-28T03:54:05.870Z,89.40
2019-04-28T03:55:05.911Z,89.19
2019-04-28T03:56:05.882Z,89.29
2019-04-28T03:57:05.866Z,89.40
2019-04-28T03:58:05.834Z,88.99
2019-04-28T03:59:05.831Z,89.61
2019-04-28T04:00:05.831Z,89.50
2019-04-28T04:01:05.818Z,88.78
2019-04-28T04:02:05.817Z,89.09
2019-04-28T04:03:05.765Z,89.40
2019-04-28T04:04:05.771Z,89.40
2019-04-28T04:05:05.789Z,89.29
2019-04-28T04:06:05.754Z,89.71
2019-04-28T04:07:05.730Z,89.61
2019-04-28T04:08:05.773Z,89.40
2019-04-28T04:09:05.718Z,89.09
2019-04-28T04:10:05.724Z,88.57
2019-04-28T04:11:05.827Z,88.68
2019-04-28T04:12:05.782Z,89.40
2019-04-28T04:13:05.781Z,89.29
2019-04-28T04:14:05.772Z,89.29
2019-04-28T04:15:05.692Z,90.12
2019-04-28T04:16:05.725Z,89.81
2019-04-28T04:17:05.770Z,89.54
2019-04-28T04:18:05.711Z,90.06
2019-04-28T04:19:05.705Z,90.16
2019-04-28T04:20:05.614Z,90.16
2019-04-28T04:21:05.744Z,90.16
2019-04-28T04:22:05.649Z,89.95
2019-04-28T04:23:05.667Z,90.06
2019-04-28T04:24:05.661Z,90.16
2019-04-28T04:25:08.819Z,90.06
2019-04-28T04:26:05.563Z,90.37
2019-04-28T04:27:05.530Z,90.37
2019-04-28T04:28:05.539Z,89.85
2019-04-28T04:29:05.514Z,90.26
2019-04-28T04:30:05.531Z,89.95
2019-04-28T04:31:05.588Z,89.65
2019-04-28T04:32:15.746Z,89.54
2019-04-28T04:33:06.651Z,89.40
2019-04-28T04:34:05.492Z,89.29
2019-04-28T04:35:05.451Z,89.40
2019-04-28T04:36:05.488Z,89.71
2019-04-28T04:37:05.737Z,89.71
2019-04-28T04:38:05.398Z,89.81
2019-04-28T04:39:05.430Z,89.61
2019-04-28T04:40:05.431Z,89.50
2019-04-28T04:41:05.387Z,89.61
2019-04-28T04:42:05.362Z,89.29
2019-04-28T04:43:05.410Z,88.99
2019-04-28T04:44:05.372Z,89.61
2019-04-28T04:45:05.347Z,89.29
2019-04-28T04:46:05.423Z,89.81
2019-04-28T04:47:05.331Z,89.81
2019-04-28T04:48:05.302Z,89.40
2019-04-28T04:49:05.384Z,89.29
2019-04-28T04:50:05.271Z,89.50
2019-04-28T04:51:05.280Z,89.09
2019-04-28T04:52:05.437Z,88.89
2019-04-28T04:53:05.319Z,88.99
2019-04-28T04:54:05.291Z,88.78
2019-04-28T04:55:05.326Z,89.29
2019-04-28T04:56:05.308Z,89.61
2019-04-28T04:57:05.219Z,89.81
2019-04-28T04:58:05.284Z,89.40
2019-04-28T04:59:05.238Z,89.40
2019-04-28T05:00:05.217Z,89.50
2019-04-28T05:01:05.225Z,89.50
2019-04-28T05:02:05.347Z,89.19
2019-04-28T05:03:05.144Z,89.09
2019-04-28T05:04:05.114Z,89.09
2019-04-28T05:05:05.101Z,89.40
2019-04-28T05:06:05.084Z,89.09
2019-04-28T05:07:05.073Z,88.99
2019-04-28T05:08:05.098Z,90.12
2019-04-28T05:09:05.061Z,89.91
2019-04-28T05:10:05.077Z,90.01
2019-04-28T05:11:05.017Z,89.81
2019-04-28T05:12:05.066Z,89.71
2019-04-28T05:13:05.033Z,90.12
2019-04-28T05:14:07.360Z,90.01
2019-04-28T05:15:04.988Z,89.81
2019-04-28T05:16:05.026Z,89.19
2019-04-28T05:17:04.995Z,89.29
2019-04-28T05:18:04.996Z,89.50
2019-04-28T05:19:05.007Z,89.61
2019-04-28T05:20:04.950Z,89.40
2019-04-28T05:21:04.925Z,90.33
2019-04-28T05:22:04.913Z,90.12
2019-04-28T05:23:04.946Z,90.01
2019-04-28T05:24:10.829Z,89.40
2019-04-28T05:25:05.914Z,89.91
2019-04-28T05:26:07.999Z,90.01
2019-04-28T05:27:05.891Z,89.71
2019-04-28T05:28:04.858Z,90.22
2019-04-28T05:29:04.872Z,90.12
2019-04-28T05:30:05.531Z,89.50
2019-04-28T05:31:04.809Z,89.81
2019-04-28T05:32:04.928Z,89.71
2019-04-28T05:33:04.815Z,89.71
2019-04-28T05:34:08.047Z,89.15
2019-04-28T05:35:04.803Z,89.09
2019-04-28T05:36:04.790Z,88.84
2019-04-28T05:37:04.755Z,88.74
2019-04-28T05:38:04.737Z,88.84
2019-04-28T05:39:04.733Z,88.12
2019-04-28T05:40:04.763Z,88.12
2019-04-28T05:41:04.741Z,87.81
2019-04-28T05:42:04.727Z,87.71
2019-04-28T05:43:04.671Z,87.51
2019-04-28T05:44:04.683Z,87.87
2019-04-28T05:45:04.700Z,88.29
2019-04-28T05:46:04.661Z,88.08
2019-04-28T05:47:04.742Z,87.57
2019-04-28T05:48:04.669Z,87.57
2019-04-28T05:49:04.637Z,87.26
2019-04-28T05:50:04.639Z,87.67
2019-04-28T05:51:04.590Z,87.05
2019-04-28T05:52:04.665Z,87.26
2019-04-28T05:53:04.642Z,86.85
2019-04-28T05:54:04.633Z,86.85
2019-04-28T05:55:04.641Z,87.87
2019-04-28T05:56:04.611Z,87.57
2019-04-28T05:57:04.627Z,88.08
2019-04-28T05:58:04.617Z,87.15
2019-04-28T05:59:04.550Z,87.57
2019-04-28T06:00:04.540Z,86.85
2019-04-28T06:01:04.580Z,87.22
2019-04-28T06:02:04.614Z,86.70
2019-04-28T06:03:04.716Z,86.80
2019-04-28T06:04:04.529Z,86.70
2019-04-28T06:05:05.159Z,87.22
2019-04-28T06:06:04.442Z,86.91
2019-04-28T06:07:04.463Z,86.70
2019-04-28T06:08:04.420Z,87.32
2019-04-28T06:09:04.403Z,86.19
2019-04-28T06:10:04.409Z,86.50
2019-04-28T06:11:04.368Z,86.60
2019-04-28T06:12:04.394Z,86.56
2019-04-28T06:13:04.652Z,86.25
2019-04-28T06:14:04.489Z,85.74
2019-04-28T06:15:04.430Z,86.46
2019-04-28T06:16:04.446Z,86.35
2019-04-28T06:17:04.631Z,86.87
2019-04-28T06:18:04.392Z,85.94
2019-04-28T06:19:04.452Z,86.05
2019-04-28T06:20:04.313Z,85.53
2019-04-28T06:21:04.362Z,86.56
2019-04-28T06:22:04.389Z,85.53
2019-04-28T06:23:04.301Z,85.94
2019-04-28T06:24:04.524Z,85.28
2019-04-28T06:25:04.280Z,85.22
2019-04-28T06:26:04.251Z,85.90
2019-04-28T06:27:04.212Z,86.11
2019-04-28T06:28:04.226Z,84.98
2019-04-28T06:29:04.183Z,84.67
2019-04-28T06:30:04.187Z,84.77
2019-04-28T06:31:04.189Z,84.36
2019-04-28T06:32:04.129Z,84.67
2019-04-28T06:33:08.152Z,85.08
2019-04-28T06:34:04.135Z,84.56
2019-04-28T06:35:04.096Z,84.98
2019-04-28T06:36:04.098Z,85.35
2019-04-28T06:37:04.080Z,85.97
2019-04-28T06:38:04.088Z,85.66
2019-04-28T06:39:04.087Z,85.04
2019-04-28T06:40:04.048Z,84.53
2019-04-28T06:41:04.035Z,84.63
2019-04-28T06:42:04.057Z,85.66
2019-04-28T06:43:04.015Z,85.41
2019-04-28T06:44:04.046Z,84.84
2019-04-28T06:45:04.022Z,83.81
2019-04-28T06:46:05.049Z,83.81
2019-04-28T06:47:04.007Z,84.08
2019-04-28T06:48:04.065Z,83.70
2019-04-28T06:49:04.000Z,85.21
2019-04-28T06:50:03.978Z,84.39
2019-04-28T06:51:03.974Z,83.19
2019-04-28T06:52:04.027Z,83.98
2019-04-28T06:53:05.254Z,84.80
2019-04-28T06:54:03.927Z,84.08
2019-04-28T06:55:03.926Z,83.67
2019-04-28T06:56:03.920Z,83.77
2019-04-28T06:57:03.871Z,84.08
2019-04-28T06:58:03.867Z,84.08
2019-04-28T06:59:03.923Z,83.26
2019-04-28T07:00:03.866Z,83.67
2019-04-28T07:01:03.870Z,83.36
2019-04-28T07:02:03.843Z,83.29
2019-04-28T07:03:03.825Z,84.08
2019-04-28T07:04:03.842Z,84.49
2019-04-28T07:05:03.888Z,83.67
2019-04-28T07:06:03.833Z,83.73
2019-04-28T07:07:03.839Z,85.38
2019-04-28T07:08:03.844Z,83.22
2019-04-28T07:09:03.735Z,83.73
2019-04-28T07:10:03.746Z,81.88
2019-04-28T07:11:03.730Z,82.91
2019-04-28T07:12:03.705Z,81.92
2019-04-28T07:13:03.684Z,83.01
2019-04-28T07:14:03.681Z,83.01
2019-04-28T07:15:03.652Z,81.88
2019-04-28T07:16:03.685Z,83.12
2019-04-28T07:17:03.646Z,82.19
2019-04-28T07:18:03.644Z,82.40
2019-04-28T07:19:03.616Z,81.88
2019-04-28T07:20:03.653Z,80.96
2019-04-28T07:21:03.618Z,81.68
2019-04-28T07:22:03.605Z,81.06
2019-04-28T07:23:03.591Z,81.74
2019-04-28T07:24:03.571Z,81.54
2019-04-28T07:25:03.621Z,80.47
2019-04-28T07:26:03.617Z,80.78
2019-04-28T07:27:03.583Z,79.75
2019-04-28T07:28:03.534Z,79.35
2019-04-28T07:29:03.519Z,79.86
2019-04-28T07:30:03.511Z,80.95
2019-04-28T07:31:03.496Z,80.03
2019-04-28T07:32:03.484Z,79.31
2019-04-28T07:33:03.498Z,79.45
2019-04-28T07:34:03.493Z,78.83
2019-04-28T07:35:03.459Z,80.17
2019-04-28T07:36:03.511Z,78.80
2019-04-28T07:37:03.585Z,80.03
2019-04-28T07:38:03.516Z,79.11
2019-04-28T07:39:03.468Z,79.93
2019-04-28T07:40:03.461Z,81.67
2019-04-28T07:41:03.406Z,79.99
2019-04-28T07:42:03.392Z,78.35
2019-04-28T07:43:03.404Z,77.57
2019-04-28T07:44:03.341Z,78.39
2019-04-28T07:45:03.354Z,79.00
2019-04-28T07:46:03.356Z,79.21
2019-04-28T07:47:03.337Z,78.42
2019-04-28T07:48:03.414Z,77.54
2019-04-28T07:49:03.299Z,77.95
2019-04-28T07:50:03.315Z,79.80
2019-04-28T07:51:03.291Z,77.50
2019-04-28T07:52:03.293Z,78.56
2019-04-28T07:53:03.265Z,78.83
2019-04-28T07:54:04.849Z,78.42
2019-04-28T07:55:03.269Z,78.53
2019-04-28T07:56:03.211Z,77.09
2019-04-28T07:57:03.202Z,77.09
2019-04-28T07:58:03.195Z,78.94
2019-04-28T07:59:03.209Z,78.39
2019-04-28T08:00:03.183Z,76.95
2019-04-28T08:01:03.173Z,77.16
2019-04-28T08:02:03.194Z,76.81
2019-04-28T08:03:03.142Z,76.40
2019-04-28T08:04:03.149Z,76.72
2019-04-28T08:05:03.149Z,75.79
2019-04-28T08:06:03.172Z,76.88
2019-04-28T08:07:03.108Z,76.27
2019-04-28T08:08:03.091Z,76.40
2019-04-28T08:09:03.119Z,78.83
2019-04-28T08:10:03.159Z,75.96
2019-04-28T08:11:03.042Z,76.27
2019-04-28T08:12:03.056Z,76.95
2019-04-28T08:13:03.052Z,77.15
2019-04-28T08:14:03.025Z,78.04
2019-04-28T08:15:03.025Z,74.26
2019-04-28T08:16:03.040Z,77.01
2019-04-28T08:17:02.990Z,74.46
2019-04-28T08:18:03.009Z,75.17
2019-04-28T08:19:02.987Z,76.20
2019-04-28T08:20:05.597Z,75.59
2019-04-28T08:21:02.955Z,74.46
2019-04-28T08:22:03.043Z,75.10
2019-04-28T08:23:02.959Z,74.87
2019-04-28T08:24:02.914Z,76.03
2019-04-28T08:25:02.913Z,75.42
2019-04-28T08:26:02.908Z,76.43
2019-04-28T08:27:02.928Z,76.03
2019-04-28T08:28:02.890Z,74.76
2019-04-28T08:29:02.859Z,74.29
2019-04-28T08:30:02.872Z,74.90
2019-04-28T08:31:03.358Z,74.49
2019-04-28T08:32:02.850Z,74.19
2019-04-28T08:33:02.813Z,73.57
2019-04-28T08:34:03.084Z,74.87
2019-04-28T08:35:02.879Z,73.71
2019-04-28T08:36:02.850Z,73.13
2019-04-28T08:37:02.788Z,74.43
2019-04-28T08:38:03.872Z,74.02
2019-04-28T08:39:02.768Z,75.24
2019-04-28T08:40:02.775Z,72.99
2019-04-28T08:41:02.760Z,72.14
2019-04-28T08:42:02.717Z,73.68
2019-04-28T08:43:02.730Z,72.65
2019-04-28T08:44:02.733Z,73.54
2019-04-28T08:45:02.681Z,72.21
2019-04-28T08:46:02.679Z,72.17
2019-04-28T08:47:02.697Z,70.85
2019-04-28T08:48:02.649Z,70.85
2019-04-28T08:49:02.655Z,69.11
2019-04-28T08:50:02.627Z,68.43
2019-04-28T08:51:02.609Z,70.17
2019-04-28T08:52:02.606Z,70.10
2019-04-28T08:53:02.600Z,71.33
2019-04-28T08:54:02.570Z,71.29
2019-04-28T08:55:02.589Z,69.79
2019-04-28T08:56:02.571Z,70.17
2019-04-28T08:57:02.553Z,70.37
2019-04-28T08:58:02.597Z,72.96
2019-04-28T08:59:04.872Z,67.76
2019-04-28T09:00:02.540Z,71.39
2019-04-28T09:01:02.499Z,68.30
2019-04-28T09:02:02.503Z,68.40
2019-04-28T09:03:02.530Z,66.57
2019-04-28T09:04:14.442Z,68.20
2019-04-28T09:05:03.513Z,66.57
2019-04-28T09:06:02.501Z,67.46
2019-04-28T09:07:02.450Z,67.01
2019-04-28T09:08:02.444Z,68.74
2019-04-28T09:09:02.439Z,68.44
2019-04-28T09:10:02.437Z,68.23
2019-04-28T09:11:02.410Z,66.09
2019-04-28T09:12:02.383Z,67.52
2019-04-28T09:13:02.391Z,64.73
2019-04-28T09:14:02.363Z,64.60
2019-04-28T09:15:02.380Z,65.59
2019-04-28T09:16:02.391Z,62.96
2019-04-28T09:17:02.340Z,63.81
2019-04-28T09:18:02.335Z,62.66
2019-04-28T09:19:02.313Z,59.53
2019-04-28T09:20:02.333Z,57.62
2019-04-28T09:21:02.294Z,56.15
2019-04-28T09:22:02.271Z,54.38
2019-04-28T09:23:02.330Z,52.47
2019-04-28T09:24:02.253Z,52.69
2019-04-28T09:25:02.270Z,54.96
2019-04-28T09:26:02.247Z,56.69
2019-04-28T09:27:02.269Z,55.88
2019-04-28T09:28:02.210Z,54.46
2019-04-28T09:29:02.250Z,56.27
2019-04-28T09:30:02.193Z,53.90
2019-04-28T09:31:02.183Z,55.51
2019-04-28T09:32:02.188Z,51.54
2019-04-28T09:33:02.174Z,50.85
2019-04-28T09:34:02.144Z,55.19
2019-04-28T09:35:02.137Z,58.44
2019-04-28T09:36:02.140Z,57.46
2019-04-28T09:37:02.141Z,62.26
2019-04-28T09:38:02.113Z,57.98
2019-04-28T09:39:02.092Z,58.91
2019-04-28T09:40:02.082Z,60.11
2019-04-28T09:41:02.069Z,62.54
2019-04-28T09:42:02.087Z,65.28
2019-04-28T09:43:02.067Z,64.57
2019-04-28T09:44:02.033Z,65.53
2019-04-28T09:45:02.022Z,62.10
2019-04-28T09:46:02.009Z,66.00
2019-04-28T09:47:02.012Z,64.26
2019-04-28T09:48:02.015Z,66.74
2019-04-28T09:49:01.995Z,64.50
2019-04-28T09:50:01.993Z,65.99
2019-04-28T09:51:01.989Z,68.06
2019-04-28T09:52:01.971Z,66.94
2019-04-28T09:53:01.952Z,66.30
2019-04-28T09:54:01.941Z,66.36
2019-04-28T09:55:01.951Z,64.63
2019-04-28T09:56:01.913Z,64.40
2019-04-28T09:57:02.005Z,66.00
2019-04-28T09:58:01.881Z,63.22
2019-04-28T09:59:01.873Z,65.83
2019-04-28T10:00:01.887Z,61.22
2019-04-28T10:01:01.866Z,58.56
2019-04-28T10:02:01.845Z,63.20
2019-04-28T10:03:01.861Z,61.30
2019-04-28T10:04:01.880Z,59.28
2019-04-28T10:05:01.815Z,59.92
2019-04-28T10:06:01.804Z,60.69
2019-04-28T10:07:01.805Z,61.56
2019-04-28T10:08:01.815Z,61.29
2019-04-28T10:09:01.799Z,63.01
2019-04-28T10:10:01.764Z,62.88
2019-04-28T10:11:01.788Z,62.81
2019-04-28T10:12:01.792Z,63.65
2019-04-28T10:13:01.759Z,63.99
2019-04-28T10:14:01.750Z,64.63
2019-04-28T10:15:01.783Z,64.93
2019-04-28T10:16:01.694Z,65.74
2019-04-28T10:17:01.678Z,66.80
2019-04-28T10:18:01.654Z,68.43
2019-04-28T10:19:01.659Z,67.89
2019-04-28T10:20:01.678Z,67.89
2019-04-28T10:21:01.643Z,66.97
2019-04-28T10:22:01.628Z,68.26
2019-04-28T10:23:01.615Z,69.90
2019-04-28T10:24:01.594Z,67.55
2019-04-28T10:25:01.589Z,66.94
2019-04-28T10:26:01.604Z,67.11
2019-04-28T10:27:01.571Z,69.19
2019-04-28T10:28:01.564Z,65.80
2019-04-28T10:29:01.593Z,65.77
2019-04-28T10:30:01.532Z,64.84
2019-04-28T10:31:01.549Z,63.18
2019-04-28T10:32:01.539Z,64.22
2019-04-28T10:33:01.610Z,63.61
2019-04-28T10:34:01.499Z,65.31
2019-04-28T10:35:01.516Z,63.65
2019-04-28T10:36:01.494Z,65.89
2019-04-28T10:37:01.455Z,63.96
2019-04-28T10:38:01.453Z,63.79
2019-04-28T10:39:01.444Z,64.40
2019-04-28T10:40:01.475Z,63.28
2019-04-28T10:41:01.449Z,63.28
2019-04-28T10:42:01.473Z,64.20
2019-04-28T10:43:01.401Z,62.46
2019-04-28T10:44:01.393Z,62.63
2019-04-28T10:45:01.394Z,62.13
2019-04-28T10:46:01.367Z,61.14
2019-04-28T10:47:01.377Z,64.29
2019-04-28T10:48:01.336Z,62.05
2019-04-28T10:49:01.385Z,63.79
2019-04-28T10:50:01.355Z,64.47
2019-04-28T10:51:01.366Z,61.59
2019-04-28T10:52:01.299Z,63.29
2019-04-28T10:53:01.343Z,63.09
2019-04-28T10:54:01.295Z,63.64
2019-04-28T10:55:01.316Z,62.04
2019-04-28T10:56:01.306Z,63.43
2019-04-28T10:57:01.241Z,62.01
2019-04-28T10:58:01.226Z,61.98
2019-04-28T10:59:01.286Z,59.42
2019-04-28T11:00:01.210Z,64.38
2019-04-28T11:01:01.236Z,61.60
2019-04-28T11:02:01.177Z,59.50
2019-04-28T11:03:01.183Z,58.35
2019-04-28T11:04:01.166Z,60.66
2019-04-28T11:05:08.230Z,58.40
2019-04-28T11:06:02.338Z,60.53
2019-04-28T11:07:01.134Z,60.63
2019-04-28T11:08:01.121Z,62.81
2019-04-28T11:09:01.133Z,61.18
2019-04-28T11:10:01.127Z,59.74
2019-04-28T11:11:01.094Z,57.43
2019-04-28T11:12:01.099Z,60.27
2019-04-28T11:13:01.109Z,56.64
2019-04-28T11:14:01.084Z,57.28
2019-04-28T11:15:01.056Z,57.02
2019-04-28T11:16:01.032Z,56.05
2019-04-28T11:17:01.050Z,56.76
2019-04-28T11:18:01.024Z,54.13
2019-04-28T11:19:01.004Z,53.58
2019-04-28T11:20:00.984Z,56.21
2019-04-28T11:21:00.975Z,55.91
2019-04-28T11:22:00.956Z,55.22
2019-04-28T11:23:00.974Z,55.07
2019-04-28T11:24:00.955Z,53.65
2019-04-28T11:25:00.965Z,57.45
2019-04-28T11:26:00.951Z,54.49
2019-04-28T11:27:00.946Z,54.99
2019-04-28T11:28:00.939Z,52.66
2019-04-28T11:29:00.935Z,56.10
2019-04-28T11:30:00.895Z,53.60
2019-04-28T11:31:00.935Z,55.98
2019-04-28T11:32:00.889Z,54.90
2019-04-28T11:33:00.860Z,52.36
2019-04-28T11:34:00.844Z,52.31
2019-04-28T11:35:00.826Z,54.44
2019-04-28T11:36:00.822Z,53.47
2019-04-28T11:37:00.831Z,53.07
2019-04-28T11:38:00.820Z,48.27
2019-04-28T11:39:00.782Z,48.93
2019-04-28T11:40:00.786Z,53.17
2019-04-28T11:41:00.759Z,51.72
2019-04-28T11:42:00.748Z,54.00
2019-04-28T11:43:00.746Z,54.21
2019-04-28T11:44:00.762Z,55.83
2019-04-28T11:45:00.798Z,54.11
2019-04-28T11:46:00.751Z,53.32
2019-04-28T11:47:00.762Z,53.96
2019-04-28T11:48:00.686Z,54.66
2019-04-28T11:49:00.667Z,55.51
2019-04-28T11:50:00.689Z,55.43
2019-04-28T11:51:00.672Z,57.97
2019-04-28T11:52:00.676Z,57.64
2019-04-28T11:53:00.619Z,57.64
2019-04-28T11:54:00.612Z,54.92
2019-04-28T11:55:00.629Z,56.24
2019-04-28T11:56:00.609Z,55.60
2019-04-28T11:57:00.591Z,58.25
2019-04-28T11:58:00.590Z,55.88
2019-04-28T11:59:00.560Z,58.22
2019-04-28T12:00:00.549Z,55.96
2019-04-28T12:01:00.557Z,58.27
2019-04-28T12:02:00.532Z,54.79
2019-04-28T12:03:00.570Z,56.01
2019-04-28T12:04:00.510Z,55.71
2019-04-28T12:05:00.502Z,53.72
2019-04-28T12:06:00.488Z,55.30
2019-04-28T12:07:00.498Z,57.31
2019-04-28T12:08:00.465Z,56.77
2019-04-28T12:09:00.465Z,57.15
2019-04-28T12:10:04.737Z,54.51
2019-04-28T12:11:00.466Z,55.40
2019-04-28T12:12:00.460Z,57.53
2019-04-28T12:13:00.448Z,57.46
2019-04-28T12:14:00.447Z,55.63
2019-04-28T12:15:00.408Z,55.60
2019-04-28T12:16:00.392Z,58.58
2019-04-28T12:17:00.390Z,60.69
2019-04-28T12:18:00.429Z,58.83
2019-04-28T12:19:00.356Z,57.51
2019-04-28T12:20:00.333Z,57.31
2019-04-28T12:21:00.319Z,57.64
2019-04-28T12:22:00.345Z,59.19
2019-04-28T12:23:00.309Z,59.70
2019-04-28T12:24:00.319Z,59.50
2019-04-28T12:25:00.302Z,60.03
2019-04-28T12:26:00.261Z,59.96
2019-04-28T12:27:00.291Z,60.80
2019-04-28T12:28:00.287Z,61.21
2019-04-28T12:29:00.879Z,62.26
2019-04-28T12:30:00.313Z,63.18
2019-04-28T12:31:00.243Z,62.18
2019-04-28T12:32:00.277Z,62.52
2019-04-28T12:33:00.195Z,63.03
2019-04-28T12:34:00.180Z,63.95
2019-04-28T12:35:00.171Z,62.32
2019-04-28T12:36:00.182Z,62.52
2019-04-28T12:37:00.168Z,63.67
2019-04-28T12:38:00.132Z,64.76
2019-04-28T12:39:00.129Z,65.31
2019-04-28T12:40:00.129Z,64.97
2019-04-28T12:41:00.142Z,66.30
2019-04-28T12:42:00.105Z,64.76
2019-04-28T12:43:00.092Z,65.17
2019-04-28T12:44:00.072Z,64.66
2019-04-28T12:45:00.053Z,65.68
2019-04-28T12:46:00.059Z,63.23
2019-04-28T12:47:00.060Z,65.17
2019-04-28T12:48:00.051Z,65.99
2019-04-28T12:49:00.025Z,64.79
2019-04-28T12:50:00.013Z,67.24
2019-04-28T12:51:00.007Z,64.22
2019-04-28T12:52:00.011Z,67.21